createdAt,value
2023-04-16T00:34:03.215Z,6.03
2023-04-16T00:39:06.438Z,5.13
2023-04-16T00:44:09.014Z,5.07
2023-04-16T00:49:15.440Z,4.93
2023-04-16T00:54:18.324Z,6.57
2023-04-16T00:59:21.352Z,5.97
2023-04-16T01:04:25.345Z,4.13
2023-04-16T01:09:27.761Z,4.85
2023-04-16T01:14:30.308Z,6.30
2023-04-16T01:19:36.765Z,6.25
2023-04-16T01:24:41.155Z,8.87
2023-04-16T01:29:46.079Z,5.35
2023-04-16T01:34:53.329Z,5.28
2023-04-16T01:39:58.281Z,5.87
2023-04-16T01:45:00.783Z,5.47
2023-04-16T01:50:05.121Z,5.97
2023-04-16T01:55:09.753Z,6.60
2023-04-16T02:00:12.785Z,7.63
2023-04-16T02:05:24.270Z,7.00
2023-04-16T02:10:28.243Z,6.35
2023-04-16T02:15:31.008Z,5.50
2023-04-16T02:20:33.666Z,6.70
2023-04-16T02:25:41.089Z,6.57
2023-04-16T02:30:45.446Z,5.23
2023-04-16T02:35:49.674Z,6.85
2023-04-16T02:40:53.665Z,7.43
2023-04-16T02:45:56.229Z,5.32
2023-04-16T02:50:58.732Z,6.72
2023-04-16T02:56:02.619Z,6.33
2023-04-16T03:01:05.408Z,9.05
2023-04-16T03:06:08.024Z,9.73
2023-04-16T03:11:11.832Z,6.75
2023-04-16T03:16:14.260Z,6.40
2023-04-16T03:21:16.699Z,7.10
2023-04-16T03:26:20.700Z,6.90
2023-04-16T03:31:25.072Z,6.17
2023-04-16T03:36:28.581Z,6.07
2023-04-16T03:41:33.829Z,6.35
2023-04-16T03:46:36.462Z,7.47
2023-04-16T03:51:42.164Z,6.60
2023-04-16T03:56:46.092Z,6.40
2023-04-16T04:01:48.756Z,6.40
2023-04-16T04:06:51.595Z,5.90
2023-04-16T04:11:55.598Z,4.87
2023-04-16T04:17:01.269Z,7.15
2023-04-16T04:22:04.170Z,6.57
2023-04-16T04:27:08.190Z,5.35
2023-04-16T04:32:13.688Z,5.50
2023-04-16T04:37:16.290Z,7.43
2023-04-16T04:42:21.895Z,7.85
2023-04-16T04:47:24.763Z,6.90
2023-04-16T04:52:29.611Z,6.78
2023-04-16T04:57:33.609Z,7.05
2023-04-16T05:02:37.876Z,6.13
2023-04-16T05:07:40.355Z,5.43
2023-04-16T05:12:44.186Z,5.87
2023-04-16T05:17:47.116Z,6.13
2023-04-16T05:22:50.059Z,4.40
2023-04-16T05:27:53.856Z,3.73
2023-04-16T05:32:56.367Z,4.20
2023-04-16T05:37:58.832Z,3.97
2023-04-16T05:43:06.046Z,3.85
2023-04-16T05:48:10.846Z,3.67
2023-04-16T05:53:13.370Z,3.87
2023-04-16T05:58:17.107Z,4.03
2023-04-16T06:03:19.612Z,4.87
2023-04-16T06:08:22.071Z,4.82
2023-04-16T06:13:26.055Z,4.82
2023-04-16T06:18:31.142Z,5.27
2023-04-16T06:23:36.253Z,4.80
2023-04-16T06:28:40.130Z,4.00
2023-04-16T06:33:42.565Z,5.03
2023-04-16T06:38:49.548Z,5.20
2023-04-16T06:43:53.510Z,4.13
2023-04-16T06:48:55.980Z,9.60
2023-04-16T06:53:58.551Z,7.50
2023-04-16T06:59:02.537Z,5.55
2023-04-16T07:04:08.006Z,5.68
2023-04-16T07:09:11.150Z,5.80
2023-04-16T07:14:15.458Z,5.43
2023-04-16T07:19:17.963Z,4.80
2023-04-16T07:24:20.590Z,3.83
2023-04-16T07:29:24.565Z,3.40
2023-04-16T07:34:29.907Z,3.10
2023-04-16T07:39:35.598Z,3.03
2023-04-16T07:44:39.678Z,2.93
2023-04-16T07:49:43.207Z,2.13
2023-04-16T07:54:48.647Z,2.20
2023-04-16T07:59:55.573Z,3.03
2023-04-16T08:04:58.081Z,3.22
2023-04-16T08:10:00.562Z,11.00
2023-04-16T08:15:05.630Z,5.93
2023-04-16T08:20:09.889Z,3.30
2023-04-16T08:25:16.351Z,2.43
2023-04-16T08:30:20.783Z,2.03
2023-04-16T08:35:23.240Z,5.43
2023-04-16T08:40:28.866Z,5.03
2023-04-16T08:45:36.729Z,3.65
2023-04-16T08:50:40.779Z,1.88
2023-04-16T08:55:48.933Z,2.27
2023-04-16T09:00:53.627Z,3.17
2023-04-16T09:05:58.812Z,1.70
2023-04-16T09:11:01.575Z,1.65
2023-04-16T09:16:07.739Z,1.83
2023-04-16T09:21:10.783Z,1.97
2023-04-16T09:26:13.355Z,3.70
2023-04-16T09:31:19.416Z,2.65
2023-04-16T09:36:23.718Z,1.03
2023-04-16T09:41:28.867Z,8.85
2023-04-16T09:46:36.657Z,8.80
2023-04-16T09:51:41.530Z,4.70
2023-04-16T09:56:46.465Z,6.28
2023-04-16T10:01:51.032Z,4.20
2023-04-16T10:07:04.424Z,3.30
2023-04-16T10:12:07.935Z,4.22
2023-04-16T10:17:12.317Z,4.97
2023-04-16T10:22:15.484Z,1.90
2023-04-16T10:27:19.321Z,1.73
2023-04-16T10:32:26.122Z,3.83
2023-04-16T10:37:32.343Z,1.58
2023-04-16T10:42:34.865Z,2.03
2023-04-16T10:47:42.645Z,1.70
2023-04-16T10:52:45.884Z,2.30
2023-04-16T10:57:50.227Z,1.60
2023-04-16T11:02:55.540Z,2.97
2023-04-16T11:08:18.123Z,2.17
2023-04-16T11:13:20.950Z,1.40
2023-04-16T11:18:25.998Z,2.42
2023-04-16T11:23:28.810Z,5.67
2023-04-16T11:28:34.836Z,4.68
2023-04-16T11:33:38.801Z,3.35
2023-04-16T11:38:41.518Z,2.23
2023-04-16T11:43:43.977Z,3.30
2023-04-16T11:48:49.534Z,3.07
2023-04-16T11:53:53.752Z,2.20
2023-04-16T11:59:11.243Z,2.15
2023-04-16T12:04:17.501Z,2.87
2023-04-16T12:09:24.481Z,2.05
2023-04-16T12:14:27.033Z,2.42
2023-04-16T12:19:30.814Z,3.20
2023-04-16T12:24:35.766Z,2.63
2023-04-16T12:29:38.156Z,2.40
2023-04-16T12:34:51.900Z,2.63
2023-04-16T12:39:54.573Z,3.05
2023-04-16T12:44:57.096Z,1.97
2023-04-16T12:50:01.480Z,5.40
2023-04-16T12:55:04.326Z,3.77
2023-04-16T13:00:08.333Z,3.13
2023-04-16T13:05:12.452Z,6.80
2023-04-16T13:10:14.864Z,5.57
2023-04-16T13:15:17.376Z,3.85
2023-04-16T13:20:23.229Z,10.63
2023-04-16T13:25:26.837Z,6.27
2023-04-16T13:30:29.362Z,4.38
2023-04-16T13:35:36.619Z,4.00
2023-04-16T13:40:39.086Z,4.60
2023-04-16T13:45:41.600Z,3.90
2023-04-16T13:50:45.771Z,3.30
2023-04-16T13:55:48.214Z,4.30
2023-04-16T14:00:51.793Z,4.57
2023-04-16T14:05:55.721Z,6.27
2023-04-16T14:10:59.280Z,4.88
2023-04-16T14:16:03.477Z,4.40
2023-04-16T14:21:07.428Z,3.70
2023-04-16T14:26:12.724Z,3.95
2023-04-16T14:31:15.211Z,3.30
2023-04-16T14:36:19.214Z,5.07
2023-04-16T14:41:23.060Z,2.97
2023-04-16T14:46:25.660Z,3.20
2023-04-16T14:51:29.956Z,4.05
2023-04-16T14:56:32.572Z,3.77
2023-04-16T15:01:35.083Z,4.05
2023-04-16T15:06:40.040Z,4.95
2023-04-16T15:11:42.569Z,3.80
2023-04-16T15:16:46.546Z,6.28
2023-04-16T15:21:50.538Z,3.60
2023-04-16T15:26:53.045Z,4.03
2023-04-16T15:31:56.228Z,2.88
2023-04-16T15:37:00.143Z,4.27
2023-04-16T15:42:07.197Z,4.57
2023-04-16T15:47:10.051Z,4.93
2023-04-16T15:52:14.125Z,5.10
2023-04-16T15:57:16.692Z,5.35
2023-04-16T16:02:19.240Z,6.47
2023-04-16T16:07:23.265Z,3.83
2023-04-16T16:12:28.573Z,5.35
2023-04-16T16:17:31.122Z,4.90
2023-04-16T16:22:34.952Z,4.45
2023-04-16T16:27:37.354Z,3.70
2023-04-16T16:32:39.899Z,3.83
2023-04-16T16:37:43.693Z,5.80
2023-04-16T16:42:46.100Z,5.60
2023-04-16T16:47:51.104Z,6.68
2023-04-16T16:52:58.759Z,6.78
2023-04-16T16:58:01.303Z,5.63
2023-04-16T17:03:03.929Z,5.85
2023-04-16T17:08:10.752Z,8.00
2023-04-16T17:13:16.305Z,8.18
2023-04-16T17:18:21.602Z,7.43
2023-04-16T17:23:25.644Z,6.23
2023-04-16T17:28:31.033Z,6.25
2023-04-16T17:33:33.729Z,7.00
2023-04-16T17:38:38.030Z,8.80
2023-04-16T17:43:40.406Z,5.80
2023-04-16T17:48:43.512Z,5.40
2023-04-16T17:53:47.354Z,5.63
2023-04-16T17:58:49.830Z,5.97
2023-04-16T18:03:52.552Z,4.95
2023-04-16T18:08:56.536Z,5.57
2023-04-16T18:14:01.599Z,5.70
2023-04-16T18:19:04.047Z,5.82
2023-04-16T18:24:09.113Z,6.07
2023-04-16T18:29:12.477Z,6.13
2023-04-16T18:34:16.105Z,5.82
2023-04-16T18:39:20.502Z,8.47
2023-04-16T18:44:23.014Z,6.97
2023-04-16T18:49:25.926Z,14.13
2023-04-16T18:54:29.974Z,6.05
2023-04-16T18:59:32.735Z,6.65
2023-04-16T19:04:35.297Z,5.40
2023-04-16T19:09:39.237Z,6.72
2023-04-16T19:14:41.816Z,9.47
2023-04-16T19:19:44.345Z,6.72
2023-04-16T19:24:48.212Z,5.63
2023-04-16T19:29:50.687Z,6.27
2023-04-16T19:34:53.213Z,6.03
2023-04-16T19:39:59.838Z,5.93
2023-04-16T19:45:02.420Z,5.97
2023-04-16T19:50:08.918Z,5.80
2023-04-16T19:55:12.950Z,6.03
2023-04-16T20:00:16.534Z,5.70
2023-04-16T20:05:19.140Z,6.07
2023-04-16T20:10:23.862Z,6.93
2023-04-16T20:15:26.304Z,7.22
2023-04-16T20:20:28.824Z,10.13
2023-04-16T20:25:32.693Z,8.85
2023-04-16T20:30:35.266Z,10.10
2023-04-16T20:35:40.246Z,8.48
2023-04-16T20:40:44.984Z,8.43
2023-04-16T20:45:47.542Z,9.87
2023-04-16T20:50:49.963Z,9.30
2023-04-16T20:55:53.998Z,9.30
2023-04-16T21:00:58.059Z,9.50
2023-04-16T21:06:00.527Z,9.82
2023-04-16T21:11:07.301Z,8.00
2023-04-16T21:16:10.004Z,8.48
2023-04-16T21:21:12.505Z,10.60
2023-04-16T21:26:19.391Z,10.55
2023-04-16T21:31:21.931Z,10.05
2023-04-16T21:36:24.383Z,8.57
2023-04-16T21:41:28.274Z,8.65
2023-04-16T21:46:33.260Z,8.10
2023-04-16T21:51:35.772Z,8.02
2023-04-16T21:56:39.623Z,8.35
2023-04-16T22:01:44.593Z,9.93
2023-04-16T22:06:46.974Z,7.82
2023-04-16T22:11:53.137Z,7.63
2023-04-16T22:16:55.755Z,8.00
2023-04-16T22:21:58.341Z,7.93
2023-04-16T22:27:02.478Z,6.40
2023-04-16T22:32:05.793Z,6.65
2023-04-16T22:37:11.175Z,8.33
2023-04-16T22:42:17.953Z,8.10
2023-04-16T22:47:20.386Z,8.60
2023-04-16T22:52:22.821Z,7.37
2023-04-16T22:57:26.715Z,8.85
2023-04-16T23:02:29.474Z,8.70
2023-04-16T23:07:31.966Z,9.38
2023-04-16T23:12:35.856Z,8.90
2023-04-16T23:17:38.303Z,8.53
2023-04-16T23:22:43.717Z,9.70
2023-04-16T23:27:47.560Z,7.53
2023-04-16T23:32:50.150Z,8.25
2023-04-16T23:37:52.763Z,8.63
2023-04-16T23:42:56.634Z,8.20
2023-04-16T23:47:59.226Z,8.18
2023-04-16T23:53:01.660Z,7.97
2023-04-16T23:58:05.490Z,8.45
